createdAt,value
2023-03-02T00:00:05.091Z,99.00
2023-03-02T00:01:05.008Z,99.15
2023-03-02T00:02:04.971Z,99.10
2023-03-02T00:03:05.041Z,98.52
2023-03-02T00:04:04.915Z,98.89
2023-03-02T00:05:04.861Z,98.89
2023-03-02T00:06:04.827Z,99.00
2023-03-02T00:07:04.805Z,99.04
2023-03-02T00:08:04.731Z,99.00
2023-03-02T00:09:04.749Z,98.94
2023-03-02T00:10:04.642Z,98.72
2023-03-02T00:11:04.605Z,98.94
2023-03-02T00:12:04.574Z,98.94
2023-03-02T00:13:04.522Z,98.62
2023-03-02T00:14:04.480Z,98.83
2023-03-02T00:15:04.512Z,99.15
2023-03-02T00:16:04.453Z,98.72
2023-03-02T00:17:04.367Z,99.25
2023-03-02T00:18:04.318Z,99.41
2023-03-02T00:19:04.287Z,99.95
2023-03-02T00:20:04.246Z,99.84
2023-03-02T00:21:04.256Z,99.95
2023-03-02T00:22:04.168Z,99.73
2023-03-02T00:23:04.129Z,99.52
2023-03-02T00:24:04.099Z,99.46
2023-03-02T00:25:04.056Z,99.25
2023-03-02T00:26:04.000Z,99.08
2023-03-02T00:27:04.019Z,98.72
2023-03-02T00:28:03.918Z,98.88
2023-03-02T00:29:03.890Z,98.88
2023-03-02T00:30:03.844Z,99.19
2023-03-02T00:31:03.855Z,98.88
2023-03-02T00:32:03.801Z,99.08
2023-03-02T00:33:03.775Z,99.44
2023-03-02T00:34:03.682Z,99.72
2023-03-02T00:35:03.714Z,99.93
2023-03-02T00:36:03.625Z,99.99
2023-03-02T00:37:03.563Z,99.93
2023-03-02T00:38:03.568Z,99.82
2023-03-02T00:39:03.480Z,99.99
2023-03-02T00:40:03.448Z,99.99
2023-03-02T00:41:03.397Z,99.99
2023-03-02T00:42:03.472Z,99.99
2023-03-02T00:43:03.334Z,99.99
2023-03-02T00:44:03.298Z,99.99
2023-03-02T00:45:03.234Z,99.99
2023-03-02T00:46:03.197Z,99.99
2023-03-02T00:47:03.256Z,99.99
2023-03-02T00:48:03.191Z,99.99
2023-03-02T00:49:03.074Z,99.99
2023-03-02T00:50:03.035Z,99.99
2023-03-02T00:51:03.002Z,99.99
2023-03-02T00:52:02.964Z,99.99
2023-03-02T00:53:02.914Z,99.99
2023-03-02T00:54:02.977Z,99.99
2023-03-02T00:55:02.832Z,99.99
2023-03-02T00:56:02.810Z,99.99
2023-03-02T00:57:02.809Z,99.99
2023-03-02T00:58:02.710Z,99.99
2023-03-02T00:59:02.672Z,99.99
2023-03-02T01:00:02.682Z,99.99
2023-03-02T01:01:02.599Z,99.99
2023-03-02T01:02:02.617Z,99.93
2023-03-02T01:03:02.584Z,99.99
2023-03-02T01:04:02.479Z,99.99
2023-03-02T01:05:02.459Z,99.99
2023-03-02T01:06:02.463Z,99.93
2023-03-02T01:07:02.352Z,99.99
2023-03-02T01:08:02.311Z,99.99
2023-03-02T01:09:02.277Z,99.99
2023-03-02T01:10:02.242Z,99.99
2023-03-02T01:11:02.209Z,99.87
2023-03-02T01:12:02.210Z,99.99
2023-03-02T01:13:02.115Z,99.99
2023-03-02T01:14:02.082Z,99.99
2023-03-02T01:15:02.032Z,99.99
2023-03-02T01:16:02.013Z,99.99
2023-03-02T01:17:01.960Z,99.98
2023-03-02T01:18:05.972Z,99.99
2023-03-02T01:19:01.876Z,99.81
2023-03-02T01:20:01.854Z,99.70
2023-03-02T01:21:01.802Z,99.70
2023-03-02T01:22:01.748Z,99.99
2023-03-02T01:23:01.721Z,99.99
2023-03-02T01:24:01.830Z,99.99
2023-03-02T01:25:01.643Z,99.99
2023-03-02T01:26:01.590Z,99.99
2023-03-02T01:27:01.549Z,99.99
2023-03-02T01:28:01.511Z,99.99
2023-03-02T01:29:01.463Z,99.99
2023-03-02T01:30:01.507Z,99.99
2023-03-02T01:31:01.396Z,99.99
2023-03-02T01:32:01.471Z,99.99
2023-03-02T01:33:01.303Z,99.99
2023-03-02T01:34:01.271Z,99.99
2023-03-02T01:35:01.228Z,99.99
2023-03-02T01:36:01.303Z,99.99
2023-03-02T01:37:01.159Z,99.99
2023-03-02T01:38:01.113Z,99.99
2023-03-02T01:39:01.058Z,99.99
2023-03-02T01:40:01.022Z,99.99
2023-03-02T01:41:00.991Z,99.99
2023-03-02T01:42:01.008Z,99.99
2023-03-02T01:43:00.900Z,99.99
2023-03-02T01:44:00.952Z,99.99
2023-03-02T01:45:00.824Z,99.99
2023-03-02T01:46:00.812Z,99.99
2023-03-02T01:47:00.741Z,99.99
2023-03-02T01:48:00.749Z,99.99
2023-03-02T01:49:00.656Z,99.99
2023-03-02T01:50:00.628Z,99.99
2023-03-02T01:51:00.578Z,99.99
2023-03-02T01:52:00.542Z,99.99
2023-03-02T01:53:00.496Z,99.99
2023-03-02T01:54:00.540Z,99.99
2023-03-02T01:55:00.419Z,99.99
2023-03-02T01:56:00.385Z,99.99
2023-03-02T01:57:00.382Z,99.99
2023-03-02T01:58:00.297Z,99.99
2023-03-02T01:59:00.259Z,99.99
2023-03-02T02:00:04.225Z,99.99
2023-03-02T02:01:00.214Z,99.99
2023-03-02T02:02:00.136Z,99.99
2023-03-02T02:03:00.110Z,99.99
2023-03-02T02:04:00.085Z,99.99
2023-03-02T02:05:00.015Z,99.99
2023-03-02T02:06:00.075Z,99.99
2023-03-02T02:06:59.924Z,99.99
2023-03-02T02:07:59.882Z,99.99
2023-03-02T02:08:59.845Z,99.99
2023-03-02T02:09:59.821Z,99.99
2023-03-02T02:10:59.769Z,99.99
2023-03-02T02:11:59.786Z,99.99
2023-03-02T02:12:59.688Z,99.99
2023-03-02T02:13:59.642Z,99.99
2023-03-02T02:14:59.605Z,99.99
2023-03-02T02:15:59.566Z,99.99
2023-03-02T02:16:59.740Z,99.99
2023-03-02T02:17:59.484Z,99.99
2023-03-02T02:18:59.442Z,99.99
2023-03-02T02:19:59.398Z,99.99
2023-03-02T02:20:59.363Z,99.99
2023-03-02T02:21:59.315Z,99.99
2023-03-02T02:22:59.343Z,99.99
2023-03-02T02:23:59.251Z,99.99
2023-03-02T02:24:59.197Z,99.99
2023-03-02T02:25:59.156Z,99.99
2023-03-02T02:26:59.117Z,99.99
2023-03-02T02:27:59.072Z,99.99
2023-03-02T02:28:59.093Z,99.99
2023-03-02T02:29:59.024Z,99.99
2023-03-02T02:30:58.961Z,99.99
2023-03-02T02:31:59.028Z,99.99
2023-03-02T02:32:58.876Z,99.99
2023-03-02T02:33:58.837Z,99.99
2023-03-02T02:34:58.857Z,99.99
2023-03-02T02:35:58.760Z,99.99
2023-03-02T02:36:58.711Z,99.99
2023-03-02T02:37:58.669Z,99.99
2023-03-02T02:38:58.629Z,99.99
2023-03-02T02:39:58.701Z,99.99
2023-03-02T02:40:58.687Z,99.99
2023-03-02T02:41:58.512Z,99.99
2023-03-02T02:42:58.479Z,99.99
2023-03-02T02:43:58.433Z,99.99
2023-03-02T02:44:58.389Z,99.99
2023-03-02T02:45:58.437Z,99.99
2023-03-02T02:46:58.375Z,99.99
2023-03-02T02:47:58.346Z,99.99
2023-03-02T02:48:58.275Z,99.99
2023-03-02T02:49:58.175Z,99.99
2023-03-02T02:50:58.147Z,99.99
2023-03-02T02:51:58.145Z,99.99
2023-03-02T02:52:58.068Z,99.99
2023-03-02T02:53:58.088Z,99.99
2023-03-02T02:54:57.982Z,99.99
2023-03-02T02:55:57.936Z,99.99
2023-03-02T02:56:57.901Z,99.99
2023-03-02T02:57:57.856Z,99.99
2023-03-02T02:58:57.879Z,99.99
2023-03-02T02:59:57.793Z,99.99
2023-03-02T03:00:57.815Z,99.99
2023-03-02T03:01:57.700Z,99.99
2023-03-02T03:02:57.652Z,99.99
2023-03-02T03:03:57.729Z,99.99
2023-03-02T03:04:57.590Z,99.99
2023-03-02T03:05:57.538Z,99.99
2023-03-02T03:06:57.507Z,99.99
2023-03-02T03:07:57.454Z,99.99
2023-03-02T03:08:57.465Z,99.99
2023-03-02T03:09:57.436Z,99.99
2023-03-02T03:10:57.340Z,99.99
2023-03-02T03:11:57.293Z,99.99
2023-03-02T03:12:57.249Z,99.99
2023-03-02T03:13:57.264Z,99.99
2023-03-02T03:14:58.899Z,99.99
2023-03-02T03:15:57.124Z,99.99
2023-03-02T03:16:57.141Z,99.99
2023-03-02T03:17:57.063Z,99.99
2023-03-02T03:18:57.143Z,99.99
2023-03-02T03:19:56.978Z,99.99
2023-03-02T03:20:56.922Z,99.99
2023-03-02T03:21:56.889Z,99.99
2023-03-02T03:22:56.838Z,99.99
2023-03-02T03:23:56.796Z,99.99
2023-03-02T03:24:56.810Z,99.99
2023-03-02T03:25:56.714Z,99.99
2023-03-02T03:26:56.693Z,99.99
2023-03-02T03:27:56.644Z,99.99
2023-03-02T03:28:56.599Z,99.99
2023-03-02T03:29:56.613Z,99.99
2023-03-02T03:30:56.571Z,99.99
2023-03-02T03:31:56.538Z,99.99
2023-03-02T03:32:56.440Z,99.99
2023-03-02T03:33:56.400Z,99.99
2023-03-02T03:34:56.426Z,99.99
2023-03-02T03:35:56.341Z,99.99
2023-03-02T03:36:56.263Z,99.99
2023-03-02T03:37:56.226Z,99.99
2023-03-02T03:38:56.186Z,99.99
2023-03-02T03:39:56.144Z,99.99
2023-03-02T03:40:56.176Z,99.99
2023-03-02T03:41:56.066Z,99.99
2023-03-02T03:42:56.021Z,99.99
2023-03-02T03:43:55.991Z,99.99
2023-03-02T03:44:55.939Z,99.99
2023-03-02T03:45:55.932Z,99.99
2023-03-02T03:46:55.929Z,99.99
2023-03-02T03:47:55.821Z,99.99
2023-03-02T03:48:55.772Z,99.99
2023-03-02T03:49:55.754Z,99.99
2023-03-02T03:50:55.692Z,99.99
2023-03-02T03:51:55.658Z,99.99
2023-03-02T03:52:55.681Z,99.99
2023-03-02T03:53:55.579Z,99.99
2023-03-02T03:54:55.525Z,99.99
2023-03-02T03:55:55.491Z,99.99
2023-03-02T03:56:55.446Z,99.99
2023-03-02T03:57:55.413Z,99.99
2023-03-02T03:58:55.425Z,99.99
2023-03-02T03:59:55.332Z,99.99
2023-03-02T04:00:55.308Z,99.99
2023-03-02T04:01:55.355Z,99.99
2023-03-02T04:02:55.251Z,99.99
2023-03-02T04:03:55.168Z,99.99
2023-03-02T04:04:55.190Z,99.99
2023-03-02T04:05:55.094Z,99.99
2023-03-02T04:06:55.049Z,99.99
2023-03-02T04:07:55.006Z,99.99
2023-03-02T04:08:54.961Z,99.99
2023-03-02T04:09:54.917Z,99.99
2023-03-02T04:10:54.944Z,99.99
2023-03-02T04:11:54.843Z,99.99
2023-03-02T04:12:54.825Z,99.99
2023-03-02T04:13:54.759Z,99.99
2023-03-02T04:14:54.733Z,99.99
2023-03-02T04:15:54.754Z,99.99
2023-03-02T04:16:54.699Z,99.99
2023-03-02T04:17:54.593Z,99.99
2023-03-02T04:18:54.552Z,99.99
2023-03-02T04:19:54.512Z,99.99
2023-03-02T04:20:54.479Z,99.99
2023-03-02T04:21:54.431Z,99.99
2023-03-02T04:22:54.445Z,99.99
2023-03-02T04:23:54.353Z,99.99
2023-03-02T04:24:54.313Z,99.99
2023-03-02T04:25:54.328Z,99.99
2023-03-02T04:26:54.238Z,99.99
2023-03-02T04:27:54.193Z,99.99
2023-03-02T04:28:54.160Z,99.99
2023-03-02T04:29:54.110Z,99.99
2023-03-02T04:30:54.213Z,99.99
2023-03-02T04:31:54.112Z,99.99
2023-03-02T04:32:53.996Z,99.99
2023-03-02T04:33:53.975Z,99.99
2023-03-02T04:34:53.912Z,99.99
2023-03-02T04:35:53.886Z,99.99
2023-03-02T04:36:53.897Z,99.99
2023-03-02T04:37:53.794Z,99.99
2023-03-02T04:38:53.752Z,99.99
2023-03-02T04:39:53.715Z,99.99
2023-03-02T04:40:53.664Z,99.99
2023-03-02T04:41:53.625Z,99.99
2023-03-02T04:42:53.674Z,99.99
2023-03-02T04:43:53.540Z,99.99
2023-03-02T04:44:53.542Z,99.99
2023-03-02T04:45:53.489Z,99.99
2023-03-02T04:46:53.439Z,99.99
2023-03-02T04:47:53.396Z,99.99
2023-03-02T04:48:53.405Z,99.99
2023-03-02T04:49:53.305Z,99.99
2023-03-02T04:50:53.258Z,99.99
2023-03-02T04:51:53.219Z,99.99
2023-03-02T04:52:53.187Z,99.99
2023-03-02T04:53:53.141Z,99.99
2023-03-02T04:54:53.173Z,99.99
2023-03-02T04:55:53.062Z,99.99
2023-03-02T04:56:53.024Z,99.99
2023-03-02T04:57:52.979Z,99.99
2023-03-02T04:58:52.935Z,99.99
2023-03-02T04:59:52.897Z,99.99
2023-03-02T05:00:52.906Z,99.99
2023-03-02T05:01:52.884Z,99.99
2023-03-02T05:02:52.779Z,99.99
2023-03-02T05:03:52.786Z,99.99
2023-03-02T05:04:52.723Z,99.99
2023-03-02T05:05:52.650Z,99.99
2023-03-02T05:06:52.614Z,99.99
2023-03-02T05:07:52.572Z,99.99
2023-03-02T05:08:52.607Z,99.99
2023-03-02T05:09:52.491Z,99.99
2023-03-02T05:10:52.444Z,99.99
2023-03-02T05:11:52.403Z,99.99
2023-03-02T05:12:52.359Z,99.99
2023-03-02T05:13:52.323Z,99.99
2023-03-02T05:14:52.343Z,99.99
2023-03-02T05:15:52.263Z,99.99
2023-03-02T05:16:52.211Z,99.99
2023-03-02T05:17:52.155Z,99.99
2023-03-02T05:18:52.131Z,99.99
2023-03-02T05:19:52.080Z,99.99
2023-03-02T05:20:52.099Z,99.99
2023-03-02T05:21:54.528Z,99.99
2023-03-02T05:22:51.954Z,99.99
2023-03-02T05:23:51.914Z,99.99
2023-03-02T05:24:51.877Z,99.99
2023-03-02T05:25:51.828Z,99.99
2023-03-02T05:26:51.864Z,99.99
2023-03-02T05:27:51.749Z,99.99
2023-03-02T05:28:53.959Z,99.99
2023-03-02T05:29:51.674Z,99.99
2023-03-02T05:30:51.640Z,99.99
2023-03-02T05:31:51.741Z,99.99
2023-03-02T05:32:51.608Z,99.99
2023-03-02T05:33:51.520Z,99.99
2023-03-02T05:34:51.464Z,99.99
2023-03-02T05:35:51.515Z,99.99
2023-03-02T05:36:51.394Z,99.99
2023-03-02T05:37:51.348Z,99.99
2023-03-02T05:38:51.357Z,99.99
2023-03-02T05:39:51.263Z,99.99
2023-03-02T05:40:51.218Z,99.99
2023-03-02T05:41:51.180Z,99.99
2023-03-02T05:42:51.142Z,99.99
2023-03-02T05:43:51.109Z,99.99
2023-03-02T05:44:51.132Z,99.99
2023-03-02T05:45:51.020Z,99.99
2023-03-02T05:46:51.037Z,99.99
2023-03-02T05:47:50.941Z,99.99
2023-03-02T05:48:50.905Z,99.99
2023-03-02T05:49:50.857Z,99.99
2023-03-02T05:50:50.954Z,99.99
2023-03-02T05:51:50.784Z,99.99
2023-03-02T05:52:50.745Z,99.99
2023-03-02T05:53:50.694Z,99.99
2023-03-02T05:54:50.653Z,99.99
2023-03-02T05:55:50.610Z,99.99
2023-03-02T05:56:50.621Z,99.99
2023-03-02T05:57:50.544Z,99.99
2023-03-02T05:58:50.530Z,99.99
2023-03-02T05:59:50.455Z,99.99
2023-03-02T06:00:50.413Z,99.99
2023-03-02T06:01:50.409Z,99.99
2023-03-02T06:02:50.615Z,99.99
2023-03-02T06:03:50.287Z,99.99
2023-03-02T06:04:50.248Z,99.99
2023-03-02T06:05:50.200Z,99.99
2023-03-02T06:06:50.166Z,99.99
2023-03-02T06:07:50.117Z,99.99
2023-03-02T06:08:50.166Z,99.99
2023-03-02T06:09:50.051Z,99.99
2023-03-02T06:10:50.003Z,99.99
2023-03-02T06:11:49.966Z,99.99
2023-03-02T06:12:49.916Z,99.99
2023-03-02T06:13:49.896Z,99.99
2023-03-02T06:14:49.890Z,99.99
2023-03-02T06:15:50.418Z,99.99
2023-03-02T06:16:49.829Z,99.99
2023-03-02T06:17:49.751Z,99.99
2023-03-02T06:18:49.701Z,99.99
2023-03-02T06:19:49.675Z,99.99
2023-03-02T06:20:49.674Z,99.99
2023-03-02T06:21:49.548Z,99.99
2023-03-02T06:22:49.508Z,99.99
2023-03-02T06:23:49.471Z,99.99
2023-03-02T06:24:49.430Z,99.99
2023-03-02T06:25:49.393Z,99.99
2023-03-02T06:26:49.409Z,99.99
2023-03-02T06:27:49.309Z,99.99
2023-03-02T06:28:53.115Z,99.99
2023-03-02T06:29:49.248Z,99.99
2023-03-02T06:30:49.221Z,99.99
2023-03-02T06:31:49.218Z,99.99
2023-03-02T06:32:49.229Z,99.99
2023-03-02T06:33:49.093Z,99.99
2023-03-02T06:34:49.030Z,99.99
2023-03-02T06:35:49.228Z,99.99
2023-03-02T06:36:48.949Z,99.99
2023-03-02T06:37:48.911Z,99.99
2023-03-02T06:38:48.913Z,99.99
2023-03-02T06:39:48.831Z,99.99
2023-03-02T06:40:48.878Z,99.99
2023-03-02T06:41:48.750Z,99.99
2023-03-02T06:42:48.707Z,99.99
2023-03-02T06:43:48.666Z,99.99
2023-03-02T06:44:48.642Z,99.99
2023-03-02T06:45:48.593Z,99.99
2023-03-02T06:46:48.597Z,99.99
2023-03-02T06:47:48.509Z,99.99
2023-03-02T06:48:48.477Z,99.99
2023-03-02T06:49:48.418Z,99.99
2023-03-02T06:50:48.385Z,99.99
2023-03-02T06:51:48.416Z,99.99
2023-03-02T06:52:48.297Z,99.99
2023-03-02T06:53:48.267Z,99.99
2023-03-02T06:54:48.248Z,99.99
2023-03-02T06:55:48.239Z,99.99
2023-03-02T06:56:48.153Z,99.99
2023-03-02T06:57:48.176Z,99.99
2023-03-02T06:58:48.067Z,99.99
2023-03-02T06:59:48.024Z,99.99
2023-03-02T07:00:48.032Z,99.99
2023-03-02T07:01:47.956Z,99.99
2023-03-02T07:02:48.002Z,99.99
2023-03-02T07:03:48.104Z,99.99
2023-03-02T07:04:48.009Z,99.99
2023-03-02T07:05:47.919Z,99.99
2023-03-02T07:06:47.925Z,99.99
2023-03-02T07:07:47.732Z,99.99
2023-03-02T07:08:47.694Z,99.99
2023-03-02T07:09:47.761Z,99.99
2023-03-02T07:10:47.648Z,99.99
2023-03-02T07:11:47.621Z,99.99
2023-03-02T07:12:47.660Z,99.99
2023-03-02T07:13:47.649Z,99.99
2023-03-02T07:14:47.512Z,99.99
2023-03-02T07:15:47.606Z,99.99
2023-03-02T07:16:47.500Z,99.99
2023-03-02T07:17:47.488Z,99.99
2023-03-02T07:18:47.349Z,99.99
2023-03-02T07:19:47.367Z,99.99
2023-03-02T07:20:47.307Z,99.99
2023-03-02T07:21:47.350Z,99.99
2023-03-02T07:22:47.213Z,99.99
2023-03-02T07:23:47.196Z,99.99
2023-03-02T07:24:47.198Z,99.99
2023-03-02T07:25:47.119Z,99.99
2023-03-02T07:26:48.912Z,99.99
2023-03-02T07:27:47.116Z,99.99
2023-03-02T07:28:47.011Z,99.99
2023-03-02T07:29:46.971Z,99.99
2023-03-02T07:30:46.976Z,99.99
2023-03-02T07:31:46.804Z,99.99
2023-03-02T07:32:46.774Z,99.99
2023-03-02T07:33:46.791Z,99.99
2023-03-02T07:34:46.791Z,99.99
2023-03-02T07:35:46.965Z,99.99
2023-03-02T07:36:46.636Z,99.99
2023-03-02T07:37:46.517Z,99.99
2023-03-02T07:38:46.632Z,99.99
2023-03-02T07:39:46.565Z,99.99
2023-03-02T07:40:46.591Z,99.99
2023-03-02T07:41:46.483Z,99.99
2023-03-02T07:42:46.328Z,99.99
2023-03-02T07:43:46.370Z,99.99
2023-03-02T07:44:46.390Z,99.99
2023-03-02T07:45:46.330Z,99.99
2023-03-02T07:46:46.349Z,99.99
2023-03-02T07:47:46.147Z,99.99
2023-03-02T07:48:46.081Z,99.99
2023-03-02T07:49:46.059Z,99.99
2023-03-02T07:50:46.027Z,99.99
2023-03-02T07:51:45.989Z,99.99
2023-03-02T07:52:45.994Z,99.99
2023-03-02T07:53:45.924Z,99.99
2023-03-02T07:54:45.877Z,99.99
2023-03-02T07:55:45.890Z,99.99
2023-03-02T07:56:45.798Z,99.99
2023-03-02T07:57:46.579Z,99.99
2023-03-02T07:58:45.804Z,99.99
2023-03-02T07:59:45.676Z,99.99
2023-03-02T08:00:45.672Z,99.99
2023-03-02T08:01:45.790Z,99.99
2023-03-02T08:02:45.635Z,99.99
2023-03-02T08:03:45.521Z,99.99
2023-03-02T08:04:45.509Z,99.99
2023-03-02T08:05:45.456Z,99.99
2023-03-02T08:06:45.416Z,99.99
2023-03-02T08:07:45.448Z,99.99
2023-03-02T08:08:45.330Z,99.99
2023-03-02T08:09:45.319Z,99.99
2023-03-02T08:10:45.478Z,99.99
2023-03-02T08:11:45.436Z,99.99
2023-03-02T08:12:45.405Z,99.99
2023-03-02T08:13:45.314Z,99.99
2023-03-02T08:14:45.292Z,99.99
2023-03-02T08:15:45.354Z,99.99
2023-03-02T08:16:45.313Z,99.82
2023-03-02T08:17:45.188Z,99.99
2023-03-02T08:18:45.219Z,99.99
2023-03-02T08:19:45.066Z,99.99
2023-03-02T08:20:45.175Z,99.99
2023-03-02T08:21:44.996Z,99.99
2023-03-02T08:22:44.882Z,99.99
2023-03-02T08:23:45.217Z,99.99
2023-03-02T08:24:45.028Z,99.99
2023-03-02T08:25:44.856Z,99.99
2023-03-02T08:26:44.722Z,99.99
2023-03-02T08:27:44.900Z,99.99
2023-03-02T08:28:45.066Z,99.99
2023-03-02T08:29:44.738Z,99.99
2023-03-02T08:30:44.604Z,99.99
2023-03-02T08:31:44.775Z,99.99
2023-03-02T08:32:44.733Z,99.99
2023-03-02T08:33:44.542Z,99.99
2023-03-02T08:34:44.701Z,99.99
2023-03-02T08:35:44.513Z,99.99
2023-03-02T08:36:44.493Z,99.99
2023-03-02T08:37:44.408Z,99.99
2023-03-02T08:38:45.317Z,99.99
2023-03-02T08:39:44.368Z,99.99
2023-03-02T08:40:44.400Z,99.99
2023-03-02T08:41:44.348Z,99.99
2023-03-02T08:42:44.369Z,99.99
2023-03-02T08:43:44.294Z,99.99
2023-03-02T08:44:44.194Z,99.99
2023-03-02T08:45:44.223Z,99.99
2023-03-02T08:46:44.372Z,99.99
2023-03-02T08:47:44.062Z,99.99
2023-03-02T08:48:44.029Z,99.99
2023-03-02T08:49:44.709Z,99.99
2023-03-02T08:50:43.998Z,99.99
2023-03-02T08:51:43.974Z,99.99
2023-03-02T08:52:44.140Z,99.89
2023-03-02T08:53:43.843Z,99.79
2023-03-02T08:54:43.881Z,99.63
2023-03-02T08:55:43.569Z,99.43
2023-03-02T08:56:43.781Z,98.65
2023-03-02T08:57:43.724Z,98.07
2023-03-02T08:58:43.853Z,98.18
2023-03-02T08:59:43.622Z,97.81
2023-03-02T09:00:43.637Z,97.61
2023-03-02T09:01:43.639Z,97.30
2023-03-02T09:02:43.489Z,97.19
2023-03-02T09:03:43.397Z,97.25
2023-03-02T09:04:43.672Z,97.00
2023-03-02T09:05:43.287Z,97.00
2023-03-02T09:06:43.304Z,95.54
2023-03-02T09:07:44.327Z,95.27
2023-03-02T09:08:43.055Z,95.94
2023-03-02T09:09:43.236Z,96.56
2023-03-02T09:10:43.331Z,96.56
2023-03-02T09:11:43.188Z,96.67
2023-03-02T09:12:43.126Z,97.50
2023-03-02T09:13:43.097Z,97.50
2023-03-02T09:14:43.056Z,96.36
2023-03-02T09:15:43.057Z,96.25
2023-03-02T09:16:43.165Z,96.98
2023-03-02T09:17:42.944Z,96.56
2023-03-02T09:18:42.997Z,96.36
2023-03-02T09:19:44.559Z,96.94
2023-03-02T09:20:42.815Z,97.04
2023-03-02T09:21:42.795Z,96.62
2023-03-02T09:22:42.865Z,96.52
2023-03-02T09:23:42.754Z,96.42
2023-03-02T09:24:42.573Z,96.31
2023-03-02T09:25:44.733Z,95.83
2023-03-02T09:26:42.637Z,96.21
2023-03-02T09:27:42.477Z,96.31
2023-03-02T09:28:42.762Z,96.11
2023-03-02T09:29:42.391Z,96.83
2023-03-02T09:30:42.344Z,96.26
2023-03-02T09:31:42.432Z,95.54
2023-03-02T09:32:42.520Z,95.75
2023-03-02T09:33:42.372Z,95.50
2023-03-02T09:34:42.513Z,95.29
2023-03-02T09:35:42.276Z,95.35
2023-03-02T09:36:42.170Z,94.51
2023-03-02T09:37:44.260Z,94.51
2023-03-02T09:38:42.095Z,93.48
2023-03-02T09:39:42.196Z,93.43
2023-03-02T09:40:42.053Z,93.64
2023-03-02T09:41:41.995Z,92.76
2023-03-02T09:42:44.400Z,92.91
2023-03-02T09:43:41.916Z,93.05
2023-03-02T09:44:41.874Z,93.05
2023-03-02T09:45:41.896Z,93.33
2023-03-02T09:46:42.073Z,93.54
2023-03-02T09:47:41.831Z,93.60
2023-03-02T09:48:41.813Z,93.24
2023-03-02T09:49:41.761Z,92.68
2023-03-02T09:50:41.680Z,91.99
2023-03-02T09:51:41.687Z,92.35
2023-03-02T09:52:41.730Z,92.66
2023-03-02T09:53:41.592Z,92.66
2023-03-02T09:54:41.792Z,92.39
2023-03-02T09:55:41.454Z,92.95
2023-03-02T09:56:41.504Z,93.16
2023-03-02T09:57:41.511Z,93.16
2023-03-02T09:58:41.406Z,94.24
2023-03-02T09:59:41.633Z,94.31
2023-03-02T10:00:41.320Z,94.32
2023-03-02T10:01:41.105Z,93.91
2023-03-02T10:02:41.183Z,93.35
2023-03-02T10:03:41.384Z,93.20
2023-03-02T10:04:41.187Z,92.43
2023-03-02T10:05:41.312Z,91.55
2023-03-02T10:06:41.118Z,91.24
2023-03-02T10:07:40.937Z,90.41
2023-03-02T10:08:41.073Z,90.10
2023-03-02T10:09:41.032Z,89.48
2023-03-02T10:10:40.840Z,90.45
2023-03-02T10:11:41.186Z,90.25
2023-03-02T10:12:40.857Z,90.14
2023-03-02T10:13:40.843Z,90.25
2023-03-02T10:14:40.869Z,90.83
2023-03-02T10:15:41.086Z,90.31
2023-03-02T10:16:40.846Z,90.41
2023-03-02T10:17:40.567Z,89.58
2023-03-02T10:18:40.700Z,89.56
2023-03-02T10:19:40.665Z,90.14
2023-03-02T10:20:40.752Z,90.35
2023-03-02T10:21:40.552Z,91.45
2023-03-02T10:22:40.575Z,91.24
2023-03-02T10:23:41.236Z,90.41
2023-03-02T10:24:40.377Z,90.56
2023-03-02T10:25:40.477Z,90.56
2023-03-02T10:26:40.609Z,90.83
2023-03-02T10:27:40.410Z,89.37
2023-03-02T10:28:40.349Z,90.31
2023-03-02T10:29:40.296Z,91.24
2023-03-02T10:30:40.277Z,89.37
2023-03-02T10:31:40.386Z,90.31
2023-03-02T10:32:40.142Z,90.27
2023-03-02T10:33:40.153Z,89.89
2023-03-02T10:34:40.117Z,89.58
2023-03-02T10:35:40.175Z,89.79
2023-03-02T10:36:40.027Z,89.58
2023-03-02T10:37:40.274Z,90.31
2023-03-02T10:38:39.981Z,90.00
2023-03-02T10:39:39.919Z,90.31
2023-03-02T10:40:39.864Z,91.10
2023-03-02T10:41:40.700Z,90.17
2023-03-02T10:42:39.868Z,89.58
2023-03-02T10:43:39.914Z,90.52
2023-03-02T10:44:39.721Z,91.70
2023-03-02T10:45:39.701Z,91.28
2023-03-02T10:46:39.978Z,91.18
2023-03-02T10:47:39.689Z,91.35
2023-03-02T10:48:40.936Z,91.14
2023-03-02T10:49:43.009Z,90.31
2023-03-02T10:50:39.526Z,90.41
2023-03-02T10:51:39.453Z,90.58
2023-03-02T10:52:44.139Z,90.02
2023-03-02T10:53:39.431Z,90.54
2023-03-02T10:54:39.294Z,89.40
2023-03-02T10:55:39.544Z,88.67
2023-03-02T10:56:39.061Z,89.69
2023-03-02T10:57:39.154Z,90.20
2023-03-02T10:58:39.282Z,91.12
2023-03-02T10:59:39.211Z,91.33
2023-03-02T11:00:39.203Z,91.74
2023-03-02T11:01:39.456Z,91.95
2023-03-02T11:02:39.121Z,91.39
2023-03-02T11:03:39.091Z,91.64
2023-03-02T11:04:39.088Z,92.47
2023-03-02T11:05:39.009Z,92.47
2023-03-02T11:06:38.978Z,92.74
2023-03-02T11:07:39.150Z,91.80
2023-03-02T11:08:38.876Z,91.70
2023-03-02T11:09:38.896Z,91.35
2023-03-02T11:10:38.753Z,91.55
2023-03-02T11:11:38.807Z,91.62
2023-03-02T11:12:38.884Z,90.95
2023-03-02T11:13:38.755Z,89.67
2023-03-02T11:14:38.702Z,88.53
2023-03-02T11:15:38.708Z,88.26
2023-03-02T11:16:38.654Z,89.17
2023-03-02T11:17:38.839Z,90.31
2023-03-02T11:18:38.540Z,90.31
2023-03-02T11:19:38.481Z,90.23
2023-03-02T11:20:38.476Z,90.44
2023-03-02T11:21:38.381Z,89.92
2023-03-02T11:22:38.394Z,89.29
2023-03-02T11:23:38.602Z,89.50
2023-03-02T11:24:38.340Z,89.46
2023-03-02T11:25:38.237Z,88.98
2023-03-02T11:26:38.228Z,88.98
2023-03-02T11:27:38.233Z,89.09
2023-03-02T11:28:38.201Z,89.71
2023-03-02T11:29:38.360Z,89.46
2023-03-02T11:30:38.117Z,89.21
2023-03-02T11:31:38.216Z,88.39
2023-03-02T11:32:38.066Z,88.11
2023-03-02T11:33:38.092Z,88.32
2023-03-02T11:34:38.157Z,88.63
2023-03-02T11:35:38.022Z,88.88
2023-03-02T11:36:37.961Z,88.53
2023-03-02T11:37:37.881Z,88.36
2023-03-02T11:38:38.074Z,88.94
2023-03-02T11:39:46.382Z,88.57
2023-03-02T11:40:37.722Z,88.71
2023-03-02T11:41:37.705Z,89.03
2023-03-02T11:42:37.733Z,89.89
2023-03-02T11:43:37.587Z,91.03
2023-03-02T11:44:37.840Z,89.96
2023-03-02T11:45:37.602Z,89.81
2023-03-02T11:46:37.504Z,89.29
2023-03-02T11:47:37.532Z,88.98
2023-03-02T11:48:37.460Z,89.09
2023-03-02T11:49:37.477Z,88.88
2023-03-02T11:50:37.596Z,88.46
2023-03-02T11:51:39.114Z,88.53
2023-03-02T11:52:37.356Z,88.48
2023-03-02T11:53:37.100Z,87.51
2023-03-02T11:54:37.215Z,87.16
2023-03-02T11:55:37.233Z,86.29
2023-03-02T11:56:37.380Z,85.68
2023-03-02T11:57:38.619Z,85.42
2023-03-02T11:58:37.109Z,85.68
2023-03-02T11:59:36.862Z,85.57
2023-03-02T12:00:37.133Z,85.61
2023-03-02T12:01:37.171Z,85.30
2023-03-02T12:02:37.204Z,85.68
2023-03-02T12:03:36.938Z,85.50
2023-03-02T12:04:36.879Z,85.82
2023-03-02T12:05:36.963Z,85.61
2023-03-02T12:06:36.861Z,85.61
2023-03-02T12:07:36.810Z,85.61
2023-03-02T12:08:36.832Z,85.61
2023-03-02T12:09:36.624Z,85.75
2023-03-02T12:10:36.680Z,86.37
2023-03-02T12:11:36.682Z,86.37
2023-03-02T12:12:36.600Z,86.10
2023-03-02T12:13:36.580Z,86.45
2023-03-02T12:14:36.720Z,87.74
2023-03-02T12:15:36.259Z,87.95
2023-03-02T12:16:36.738Z,88.42
2023-03-02T12:17:36.288Z,87.74
2023-03-02T12:18:36.412Z,88.32
2023-03-02T12:19:36.339Z,88.57
2023-03-02T12:20:36.552Z,88.85
2023-03-02T12:21:36.188Z,90.56
2023-03-02T12:22:36.209Z,91.60
2023-03-02T12:23:36.709Z,91.18
2023-03-02T12:24:36.285Z,91.14
2023-03-02T12:25:36.121Z,91.14
2023-03-02T12:26:36.639Z,90.31
2023-03-02T12:27:36.127Z,91.35
2023-03-02T12:28:36.050Z,91.18
2023-03-02T12:29:36.890Z,91.76
2023-03-02T12:30:35.993Z,91.70
2023-03-02T12:31:35.881Z,92.11
2023-03-02T12:32:36.112Z,92.38
2023-03-02T12:33:35.871Z,92.18
2023-03-02T12:34:35.893Z,91.86
2023-03-02T12:35:35.775Z,91.66
2023-03-02T12:36:35.808Z,91.55
2023-03-02T12:37:35.970Z,91.80
2023-03-02T12:38:35.669Z,92.47
2023-03-02T12:39:35.653Z,92.88
2023-03-02T12:40:35.635Z,92.78
2023-03-02T12:41:35.629Z,92.68
2023-03-02T12:42:35.778Z,93.55
2023-03-02T12:43:35.350Z,93.66
2023-03-02T12:44:35.502Z,93.93
2023-03-02T12:45:35.179Z,93.93
2023-03-02T12:46:35.661Z,93.51
2023-03-02T12:47:35.318Z,93.20
2023-03-02T12:48:35.566Z,93.20
2023-03-02T12:49:35.231Z,93.47
2023-03-02T12:50:35.220Z,93.47
2023-03-02T12:51:35.313Z,92.88